sensor_id;sensor_type;location;lat;lon;timestamp;temperature;humidity
8342;DHT22;4208;49.406;10.788;2022-09-30T00:01:44;6.30;99.90
8342;DHT22;4208;49.406;10.788;2022-09-30T00:04:18;6.30;99.90
8342;DHT22;4208;49.406;10.788;2022-09-30T00:06:47;6.20;99.90
8342;DHT22;4208;49.406;10.788;2022-09-30T00:09:16;6.20;99.90
8342;DHT22;4208;49.406;10.788;2022-09-30T00:11:45;6.20;99.90
8342;DHT22;4208;49.406;10.788;2022-09-30T00:14:16;6.10;99.90
8342;DHT22;4208;49.406;10.788;2022-09-30T00:16:45;6.10;99.90
8342;DHT22;4208;49.406;10.788;2022-09-30T00:19:16;6.10;99.90
8342;DHT22;4208;49.406;10.788;2022-09-30T00:21:44;6.10;99.90
8342;DHT22;4208;49.406;10.788;2022-09-30T00:24:13;6.00;99.90
8342;DHT22;4208;49.406;10.788;2022-09-30T00:26:42;6.00;99.90
8342;DHT22;4208;49.406;10.788;2022-09-30T00:29:11;5.90;99.90
8342;DHT22;4208;49.406;10.788;2022-09-30T00:31:39;5.90;99.90
8342;DHT22;4208;49.406;10.788;2022-09-30T00:34:08;5.90;99.90
8342;DHT22;4208;49.406;10.788;2022-09-30T00:36:42;5.90;99.90
8342;DHT22;4208;49.406;10.788;2022-09-30T00:39:13;5.90;99.90
8342;DHT22;4208;49.406;10.788;2022-09-30T00:41:43;5.90;99.90
8342;DHT22;4208;49.406;10.788;2022-09-30T00:44:41;5.80;99.90
8342;DHT22;4208;49.406;10.788;2022-09-30T00:47:31;5.80;99.90
8342;DHT22;4208;49.406;10.788;2022-09-30T00:50:04;5.70;99.90
8342;DHT22;4208;49.406;10.788;2022-09-30T00:52:38;5.70;99.90
8342;DHT22;4208;49.406;10.788;2022-09-30T00:55:19;5.70;99.90
8342;DHT22;4208;49.406;10.788;2022-09-30T00:57:49;5.60;99.90
8342;DHT22;4208;49.406;10.788;2022-09-30T01:00:18;5.60;99.90
8342;DHT22;4208;49.406;10.788;2022-09-30T01:02:47;5.60;99.90
8342;DHT22;4208;49.406;10.788;2022-09-30T01:05:16;5.60;99.90
8342;DHT22;4208;49.406;10.788;2022-09-30T01:07:46;5.60;99.90
8342;DHT22;4208;49.406;10.788;2022-09-30T01:10:16;5.50;99.90
8342;DHT22;4208;49.406;10.788;2022-09-30T01:12:45;5.50;99.90
8342;DHT22;4208;49.406;10.788;2022-09-30T01:15:14;5.50;99.90
8342;DHT22;4208;49.406;10.788;2022-09-30T01:17:49;5.40;99.90
8342;DHT22;4208;49.406;10.788;2022-09-30T01:20:45;5.40;99.90
8342;DHT22;4208;49.406;10.788;2022-09-30T01:23:51;5.40;99.90
8342;DHT22;4208;49.406;10.788;2022-09-30T01:26:51;5.40;99.90
8342;DHT22;4208;49.406;10.788;2022-09-30T01:32:33;5.30;99.90
8342;DHT22;4208;49.406;10.788;2022-09-30T01:35:13;5.20;99.90
8342;DHT22;4208;49.406;10.788;2022-09-30T01:37:54;5.20;99.90
8342;DHT22;4208;49.406;10.788;2022-09-30T01:40:34;5.10;99.90
8342;DHT22;4208;49.406;10.788;2022-09-30T01:43:12;5.10;99.90
8342;DHT22;4208;49.406;10.788;2022-09-30T01:45:43;5.00;99.90
8342;DHT22;4208;49.406;10.788;2022-09-30T01:48:21;5.00;99.90
8342;DHT22;4208;49.406;10.788;2022-09-30T01:50:55;5.00;99.90
8342;DHT22;4208;49.406;10.788;2022-09-30T01:53:32;5.00;99.90
8342;DHT22;4208;49.406;10.788;2022-09-30T01:56:10;5.00;99.90
8342;DHT22;4208;49.406;10.788;2022-09-30T01:58:44;4.90;99.90
8342;DHT22;4208;49.406;10.788;2022-09-30T02:01:22;5.00;99.90
8342;DHT22;4208;49.406;10.788;2022-09-30T02:03:55;4.90;99.90
8342;DHT22;4208;49.406;10.788;2022-09-30T02:06:31;4.90;99.90
8342;DHT22;4208;49.406;10.788;2022-09-30T02:09:04;4.90;99.90
8342;DHT22;4208;49.406;10.788;2022-09-30T02:11:35;4.80;99.90
8342;DHT22;4208;49.406;10.788;2022-09-30T02:14:09;4.80;99.90
8342;DHT22;4208;49.406;10.788;2022-09-30T02:16:45;4.90;99.90
8342;DHT22;4208;49.406;10.788;2022-09-30T02:19:18;4.90;99.90
8342;DHT22;4208;49.406;10.788;2022-09-30T02:21:54;4.90;99.90
8342;DHT22;4208;49.406;10.788;2022-09-30T02:24:25;4.80;99.90
8342;DHT22;4208;49.406;10.788;2022-09-30T02:26:56;4.80;99.90
8342;DHT22;4208;49.406;10.788;2022-09-30T02:29:29;4.80;99.90
8342;DHT22;4208;49.406;10.788;2022-09-30T02:32:04;4.70;99.90
8342;DHT22;4208;49.406;10.788;2022-09-30T02:34:37;4.70;99.90
8342;DHT22;4208;49.406;10.788;2022-09-30T02:37:09;4.70;99.90
8342;DHT22;4208;49.406;10.788;2022-09-30T02:39:43;4.70;99.90
8342;DHT22;4208;49.406;10.788;2022-09-30T02:42:16;4.70;99.90
8342;DHT22;4208;49.406;10.788;2022-09-30T02:44:48;4.80;99.90
8342;DHT22;4208;49.406;10.788;2022-09-30T02:47:24;4.70;99.90
8342;DHT22;4208;49.406;10.788;2022-09-30T02:50:01;4.70;99.90
8342;DHT22;4208;49.406;10.788;2022-09-30T02:52:40;4.60;99.90
8342;DHT22;4208;49.406;10.788;2022-09-30T02:55:16;4.60;99.90
8342;DHT22;4208;49.406;10.788;2022-09-30T02:57:55;4.60;99.90
8342;DHT22;4208;49.406;10.788;2022-09-30T03:00:25;4.60;99.90
8342;DHT22;4208;49.406;10.788;2022-09-30T03:02:58;4.60;99.90
8342;DHT22;4208;49.406;10.788;2022-09-30T03:05:29;4.60;99.90
8342;DHT22;4208;49.406;10.788;2022-09-30T03:07:58;4.60;99.90
8342;DHT22;4208;49.406;10.788;2022-09-30T03:10:29;4.60;99.90
8342;DHT22;4208;49.406;10.788;2022-09-30T03:13:13;4.60;99.90
8342;DHT22;4208;49.406;10.788;2022-09-30T03:16:00;4.50;99.90
8342;DHT22;4208;49.406;10.788;2022-09-30T03:18:47;4.50;99.90
8342;DHT22;4208;49.406;10.788;2022-09-30T03:21:31;4.50;99.90
8342;DHT22;4208;49.406;10.788;2022-09-30T03:24:21;4.50;99.90
8342;DHT22;4208;49.406;10.788;2022-09-30T03:26:59;4.50;99.90
8342;DHT22;4208;49.406;10.788;2022-09-30T03:29:36;4.50;99.90
8342;DHT22;4208;49.406;10.788;2022-09-30T03:32:17;4.40;99.90
8342;DHT22;4208;49.406;10.788;2022-09-30T03:35:00;4.40;99.90
8342;DHT22;4208;49.406;10.788;2022-09-30T03:37:42;4.40;99.90
8342;DHT22;4208;49.406;10.788;2022-09-30T03:40:16;4.40;99.90
8342;DHT22;4208;49.406;10.788;2022-09-30T03:42:54;4.40;99.90
8342;DHT22;4208;49.406;10.788;2022-09-30T03:45:29;4.40;99.90
8342;DHT22;4208;49.406;10.788;2022-09-30T03:48:03;4.50;99.90
8342;DHT22;4208;49.406;10.788;2022-09-30T03:50:34;4.40;99.90
8342;DHT22;4208;49.406;10.788;2022-09-30T03:53:09;4.50;99.90
8342;DHT22;4208;49.406;10.788;2022-09-30T03:55:46;4.50;99.90
8342;DHT22;4208;49.406;10.788;2022-09-30T03:58:16;4.50;99.90
8342;DHT22;4208;49.406;10.788;2022-09-30T04:00:48;4.60;99.90
8342;DHT22;4208;49.406;10.788;2022-09-30T04:03:17;4.60;99.90
8342;DHT22;4208;49.406;10.788;2022-09-30T04:05:47;4.60;99.90
8342;DHT22;4208;49.406;10.788;2022-09-30T04:08:17;4.70;99.90
8342;DHT22;4208;49.406;10.788;2022-09-30T04:10:46;4.60;99.90
8342;DHT22;4208;49.406;10.788;2022-09-30T04:13:15;4.70;99.90
8342;DHT22;4208;49.406;10.788;2022-09-30T04:15:43;4.70;99.90
8342;DHT22;4208;49.406;10.788;2022-09-30T04:18:12;4.70;99.90
8342;DHT22;4208;49.406;10.788;2022-09-30T04:20:41;4.80;99.90
8342;DHT22;4208;49.406;10.788;2022-09-30T04:23:09;4.70;99.90
8342;DHT22;4208;49.406;10.788;2022-09-30T04:25:39;4.80;99.90
8342;DHT22;4208;49.406;10.788;2022-09-30T04:28:08;4.70;99.90
8342;DHT22;4208;49.406;10.788;2022-09-30T04:30:37;4.70;99.90
8342;DHT22;4208;49.406;10.788;2022-09-30T04:33:05;4.80;99.90
8342;DHT22;4208;49.406;10.788;2022-09-30T04:35:35;4.80;99.90
8342;DHT22;4208;49.406;10.788;2022-09-30T04:38:05;4.80;99.90
8342;DHT22;4208;49.406;10.788;2022-09-30T04:40:35;4.80;99.90
8342;DHT22;4208;49.406;10.788;2022-09-30T04:43:05;4.80;99.90
8342;DHT22;4208;49.406;10.788;2022-09-30T04:45:34;4.70;99.90
8342;DHT22;4208;49.406;10.788;2022-09-30T04:48:03;4.70;99.90
8342;DHT22;4208;49.406;10.788;2022-09-30T04:50:31;4.70;99.90
8342;DHT22;4208;49.406;10.788;2022-09-30T04:53:00;4.70;99.90
8342;DHT22;4208;49.406;10.788;2022-09-30T04:55:30;4.70;99.90
8342;DHT22;4208;49.406;10.788;2022-09-30T04:57:59;4.70;99.90
8342;DHT22;4208;49.406;10.788;2022-09-30T05:00:29;4.70;99.90
8342;DHT22;4208;49.406;10.788;2022-09-30T05:02:58;4.70;99.90
8342;DHT22;4208;49.406;10.788;2022-09-30T05:05:26;4.70;99.90
8342;DHT22;4208;49.406;10.788;2022-09-30T05:07:59;4.70;99.90
8342;DHT22;4208;49.406;10.788;2022-09-30T05:10:28;4.70;99.90
8342;DHT22;4208;49.406;10.788;2022-09-30T05:12:57;4.70;99.90
8342;DHT22;4208;49.406;10.788;2022-09-30T05:15:26;4.70;99.90
8342;DHT22;4208;49.406;10.788;2022-09-30T05:17:56;4.70;99.90
8342;DHT22;4208;49.406;10.788;2022-09-30T05:20:25;4.70;99.90
8342;DHT22;4208;49.406;10.788;2022-09-30T05:22:55;4.60;99.90
8342;DHT22;4208;49.406;10.788;2022-09-30T05:25:24;4.60;99.90
8342;DHT22;4208;49.406;10.788;2022-09-30T05:27:52;4.60;99.90
8342;DHT22;4208;49.406;10.788;2022-09-30T05:30:21;4.60;99.90
8342;DHT22;4208;49.406;10.788;2022-09-30T05:32:49;4.60;99.90
8342;DHT22;4208;49.406;10.788;2022-09-30T05:35:19;4.60;99.90
8342;DHT22;4208;49.406;10.788;2022-09-30T05:37:48;4.60;99.90
8342;DHT22;4208;49.406;10.788;2022-09-30T05:40:17;4.60;99.90
8342;DHT22;4208;49.406;10.788;2022-09-30T05:42:45;4.60;99.90
8342;DHT22;4208;49.406;10.788;2022-09-30T05:45:14;4.60;99.90
8342;DHT22;4208;49.406;10.788;2022-09-30T05:47:43;4.60;99.90
8342;DHT22;4208;49.406;10.788;2022-09-30T05:50:20;4.60;99.90
8342;DHT22;4208;49.406;10.788;2022-09-30T05:52:48;4.70;99.90
8342;DHT22;4208;49.406;10.788;2022-09-30T05:55:18;4.70;99.90
8342;DHT22;4208;49.406;10.788;2022-09-30T05:57:49;4.70;99.90
8342;DHT22;4208;49.406;10.788;2022-09-30T06:00:18;4.70;99.90
8342;DHT22;4208;49.406;10.788;2022-09-30T06:02:50;4.70;99.90
8342;DHT22;4208;49.406;10.788;2022-09-30T06:05:20;4.70;99.90
8342;DHT22;4208;49.406;10.788;2022-09-30T06:07:49;4.70;99.90
8342;DHT22;4208;49.406;10.788;2022-09-30T06:10:18;4.70;99.90
8342;DHT22;4208;49.406;10.788;2022-09-30T06:12:46;4.70;99.90
8342;DHT22;4208;49.406;10.788;2022-09-30T06:15:15;4.70;99.90
8342;DHT22;4208;49.406;10.788;2022-09-30T06:17:44;4.70;99.90
8342;DHT22;4208;49.406;10.788;2022-09-30T06:20:13;4.80;99.90
8342;DHT22;4208;49.406;10.788;2022-09-30T06:22:43;4.80;99.90
8342;DHT22;4208;49.406;10.788;2022-09-30T06:25:13;4.80;99.90
8342;DHT22;4208;49.406;10.788;2022-09-30T06:27:43;4.80;99.90
8342;DHT22;4208;49.406;10.788;2022-09-30T06:30:13;4.90;99.90
8342;DHT22;4208;49.406;10.788;2022-09-30T06:32:42;4.90;99.90
8342;DHT22;4208;49.406;10.788;2022-09-30T06:35:10;4.90;99.90
8342;DHT22;4208;49.406;10.788;2022-09-30T06:37:39;5.00;99.90
8342;DHT22;4208;49.406;10.788;2022-09-30T06:40:09;5.00;99.90
8342;DHT22;4208;49.406;10.788;2022-09-30T06:42:38;5.10;99.90
8342;DHT22;4208;49.406;10.788;2022-09-30T06:45:09;5.10;99.90
8342;DHT22;4208;49.406;10.788;2022-09-30T06:47:55;5.20;99.90
8342;DHT22;4208;49.406;10.788;2022-09-30T06:50:27;5.20;99.90
8342;DHT22;4208;49.406;10.788;2022-09-30T06:52:56;5.20;99.90
8342;DHT22;4208;49.406;10.788;2022-09-30T06:55:27;5.20;99.90
8342;DHT22;4208;49.406;10.788;2022-09-30T06:57:56;5.20;99.90
8342;DHT22;4208;49.406;10.788;2022-09-30T07:00:26;5.30;99.90
8342;DHT22;4208;49.406;10.788;2022-09-30T07:02:55;5.30;99.90
8342;DHT22;4208;49.406;10.788;2022-09-30T07:05:24;5.40;99.90
8342;DHT22;4208;49.406;10.788;2022-09-30T07:07:53;5.40;99.90
8342;DHT22;4208;49.406;10.788;2022-09-30T07:10:22;5.40;99.90
8342;DHT22;4208;49.406;10.788;2022-09-30T07:12:53;5.50;99.90
8342;DHT22;4208;49.406;10.788;2022-09-30T07:15:22;5.50;99.90
8342;DHT22;4208;49.406;10.788;2022-09-30T07:17:51;5.50;99.90
8342;DHT22;4208;49.406;10.788;2022-09-30T07:20:19;5.50;99.90
8342;DHT22;4208;49.406;10.788;2022-09-30T07:22:48;5.60;99.90
8342;DHT22;4208;49.406;10.788;2022-09-30T07:25:17;5.60;99.90
8342;DHT22;4208;49.406;10.788;2022-09-30T07:27:46;5.70;99.90
8342;DHT22;4208;49.406;10.788;2022-09-30T07:30:16;5.70;99.90
8342;DHT22;4208;49.406;10.788;2022-09-30T07:32:53;5.70;99.90
8342;DHT22;4208;49.406;10.788;2022-09-30T07:35:22;5.70;99.90
8342;DHT22;4208;49.406;10.788;2022-09-30T07:37:50;5.80;99.90
8342;DHT22;4208;49.406;10.788;2022-09-30T07:40:19;5.80;99.90
8342;DHT22;4208;49.406;10.788;2022-09-30T07:42:48;5.90;99.90
8342;DHT22;4208;49.406;10.788;2022-09-30T07:45:18;5.90;99.90
8342;DHT22;4208;49.406;10.788;2022-09-30T07:47:47;6.00;99.90
8342;DHT22;4208;49.406;10.788;2022-09-30T07:50:20;6.10;99.90
8342;DHT22;4208;49.406;10.788;2022-09-30T07:52:49;6.20;99.90
8342;DHT22;4208;49.406;10.788;2022-09-30T07:55:17;6.20;99.90
8342;DHT22;4208;49.406;10.788;2022-09-30T07:57:46;6.20;99.90
8342;DHT22;4208;49.406;10.788;2022-09-30T08:00:15;6.20;99.90
8342;DHT22;4208;49.406;10.788;2022-09-30T08:03:05;6.30;99.90
8342;DHT22;4208;49.406;10.788;2022-09-30T08:05:38;6.40;99.90
8342;DHT22;4208;49.406;10.788;2022-09-30T08:08:07;6.40;99.90
8342;DHT22;4208;49.406;10.788;2022-09-30T08:10:35;6.50;99.90
8342;DHT22;4208;49.406;10.788;2022-09-30T08:13:04;6.60;99.90
8342;DHT22;4208;49.406;10.788;2022-09-30T08:15:33;6.70;99.90
8342;DHT22;4208;49.406;10.788;2022-09-30T08:18:01;6.80;99.90
8342;DHT22;4208;49.406;10.788;2022-09-30T08:20:31;6.90;99.90
8342;DHT22;4208;49.406;10.788;2022-09-30T08:23:00;7.00;99.90
8342;DHT22;4208;49.406;10.788;2022-09-30T08:25:29;7.10;99.90
8342;DHT22;4208;49.406;10.788;2022-09-30T08:27:57;7.20;99.90
8342;DHT22;4208;49.406;10.788;2022-09-30T08:30:26;7.20;99.90
8342;DHT22;4208;49.406;10.788;2022-09-30T08:32:55;7.20;99.90
8342;DHT22;4208;49.406;10.788;2022-09-30T08:35:25;7.30;99.90
8342;DHT22;4208;49.406;10.788;2022-09-30T08:37:54;7.40;99.90
8342;DHT22;4208;49.406;10.788;2022-09-30T08:40:25;7.50;99.90
8342;DHT22;4208;49.406;10.788;2022-09-30T08:43:08;7.60;99.90
8342;DHT22;4208;49.406;10.788;2022-09-30T08:45:46;7.70;99.90
8342;DHT22;4208;49.406;10.788;2022-09-30T08:48:28;7.80;99.90
8342;DHT22;4208;49.406;10.788;2022-09-30T08:51:06;8.00;99.90
8342;DHT22;4208;49.406;10.788;2022-09-30T08:53:40;8.10;99.90
8342;DHT22;4208;49.406;10.788;2022-09-30T08:56:12;8.10;99.90
8342;DHT22;4208;49.406;10.788;2022-09-30T08:58:47;8.10;99.90
8342;DHT22;4208;49.406;10.788;2022-09-30T09:01:21;8.10;99.90
8342;DHT22;4208;49.406;10.788;2022-09-30T09:03:51;8.20;99.90
8342;DHT22;4208;49.406;10.788;2022-09-30T09:06:27;8.30;99.90
8342;DHT22;4208;49.406;10.788;2022-09-30T09:12:08;8.40;99.90
8342;DHT22;4208;49.406;10.788;2022-09-30T09:14:50;8.40;99.90
8342;DHT22;4208;49.406;10.788;2022-09-30T09:17:30;8.50;99.90
8342;DHT22;4208;49.406;10.788;2022-09-30T09:20:03;8.60;99.90
8342;DHT22;4208;49.406;10.788;2022-09-30T09:22:35;8.70;99.90
8342;DHT22;4208;49.406;10.788;2022-09-30T09:25:05;8.70;99.90
8342;DHT22;4208;49.406;10.788;2022-09-30T09:27:43;8.70;99.90
8342;DHT22;4208;49.406;10.788;2022-09-30T09:30:15;8.80;99.90
8342;DHT22;4208;49.406;10.788;2022-09-30T09:32:49;9.00;99.90
8342;DHT22;4208;49.406;10.788;2022-09-30T09:35:27;9.20;99.90
8342;DHT22;4208;49.406;10.788;2022-09-30T09:38:01;9.30;99.90
8342;DHT22;4208;49.406;10.788;2022-09-30T09:41:03;9.30;99.90
8342;DHT22;4208;49.406;10.788;2022-09-30T09:43:44;9.40;99.90
8342;DHT22;4208;49.406;10.788;2022-09-30T09:46:22;9.50;99.90
8342;DHT22;4208;49.406;10.788;2022-09-30T09:49:13;9.60;99.90
8342;DHT22;4208;49.406;10.788;2022-09-30T09:54:54;9.80;99.90
8342;DHT22;4208;49.406;10.788;2022-09-30T09:57:25;9.90;99.90
8342;DHT22;4208;49.406;10.788;2022-09-30T10:00:04;10.10;99.90
8342;DHT22;4208;49.406;10.788;2022-09-30T10:02:58;10.20;99.90
8342;DHT22;4208;49.406;10.788;2022-09-30T10:05:28;10.40;99.90
8342;DHT22;4208;49.406;10.788;2022-09-30T10:08:09;10.60;99.90
8342;DHT22;4208;49.406;10.788;2022-09-30T10:10:45;10.80;99.90
8342;DHT22;4208;49.406;10.788;2022-09-30T10:13:17;11.00;99.90
8342;DHT22;4208;49.406;10.788;2022-09-30T10:15:48;11.10;99.90
8342;DHT22;4208;49.406;10.788;2022-09-30T10:18:21;11.30;99.90
8342;DHT22;4208;49.406;10.788;2022-09-30T10:20:54;11.40;99.90
8342;DHT22;4208;49.406;10.788;2022-09-30T10:23:26;11.40;99.90
8342;DHT22;4208;49.406;10.788;2022-09-30T10:26:02;11.60;99.90
8342;DHT22;4208;49.406;10.788;2022-09-30T10:28:34;11.60;99.90
8342;DHT22;4208;49.406;10.788;2022-09-30T10:31:16;11.80;99.90
8342;DHT22;4208;49.406;10.788;2022-09-30T10:33:54;12.00;99.90
8342;DHT22;4208;49.406;10.788;2022-09-30T10:36:30;12.00;99.90
8342;DHT22;4208;49.406;10.788;2022-09-30T10:39:01;12.10;99.90
8342;DHT22;4208;49.406;10.788;2022-09-30T10:41:35;12.30;99.90
8342;DHT22;4208;49.406;10.788;2022-09-30T10:44:06;12.30;99.90
8342;DHT22;4208;49.406;10.788;2022-09-30T10:46:43;12.40;99.90
8342;DHT22;4208;49.406;10.788;2022-09-30T10:49:23;12.40;99.90
8342;DHT22;4208;49.406;10.788;2022-09-30T10:51:54;12.40;99.90
8342;DHT22;4208;49.406;10.788;2022-09-30T10:54:35;12.40;99.90
8342;DHT22;4208;49.406;10.788;2022-09-30T10:57:18;12.70;99.90
8342;DHT22;4208;49.406;10.788;2022-09-30T10:59:49;12.80;99.90
8342;DHT22;4208;49.406;10.788;2022-09-30T11:02:25;13.10;99.90
8342;DHT22;4208;49.406;10.788;2022-09-30T11:05:10;13.20;99.90
8342;DHT22;4208;49.406;10.788;2022-09-30T11:07:45;13.20;99.90
8342;DHT22;4208;49.406;10.788;2022-09-30T11:10:27;13.30;99.90
8342;DHT22;4208;49.406;10.788;2022-09-30T11:13:06;13.40;99.90
8342;DHT22;4208;49.406;10.788;2022-09-30T11:15:41;13.50;99.90
8342;DHT22;4208;49.406;10.788;2022-09-30T11:18:17;13.50;99.90
8342;DHT22;4208;49.406;10.788;2022-09-30T11:20:54;13.40;99.90
8342;DHT22;4208;49.406;10.788;2022-09-30T11:23:29;13.40;99.90
8342;DHT22;4208;49.406;10.788;2022-09-30T11:26:04;13.40;99.90
8342;DHT22;4208;49.406;10.788;2022-09-30T11:28:50;13.40;99.90
8342;DHT22;4208;49.406;10.788;2022-09-30T11:31:27;13.40;99.90
8342;DHT22;4208;49.406;10.788;2022-09-30T11:34:22;13.50;99.90
8342;DHT22;4208;49.406;10.788;2022-09-30T11:37:01;13.60;99.90
8342;DHT22;4208;49.406;10.788;2022-09-30T11:39:55;13.70;99.90
8342;DHT22;4208;49.406;10.788;2022-09-30T11:42:32;13.90;99.90
8342;DHT22;4208;49.406;10.788;2022-09-30T11:45:11;13.90;99.90
8342;DHT22;4208;49.406;10.788;2022-09-30T11:47:52;14.20;99.90
8342;DHT22;4208;49.406;10.788;2022-09-30T11:50:40;14.40;99.90
8342;DHT22;4208;49.406;10.788;2022-09-30T11:53:21;14.50;99.90
8342;DHT22;4208;49.406;10.788;2022-09-30T11:56:08;14.50;99.90
8342;DHT22;4208;49.406;10.788;2022-09-30T11:58:42;14.60;99.90
8342;DHT22;4208;49.406;10.788;2022-09-30T12:01:19;14.90;99.90
8342;DHT22;4208;49.406;10.788;2022-09-30T12:03:56;14.70;99.90
8342;DHT22;4208;49.406;10.788;2022-09-30T12:06:32;14.70;99.90
8342;DHT22;4208;49.406;10.788;2022-09-30T12:09:08;14.60;99.90
8342;DHT22;4208;49.406;10.788;2022-09-30T12:11:46;14.40;99.90
8342;DHT22;4208;49.406;10.788;2022-09-30T12:14:21;14.30;99.90
8342;DHT22;4208;49.406;10.788;2022-09-30T12:16:50;14.40;99.90
8342;DHT22;4208;49.406;10.788;2022-09-30T12:19:25;14.60;99.90
8342;DHT22;4208;49.406;10.788;2022-09-30T12:22:03;14.40;99.90
8342;DHT22;4208;49.406;10.788;2022-09-30T12:24:36;14.30;99.90
8342;DHT22;4208;49.406;10.788;2022-09-30T12:27:13;14.50;99.90
8342;DHT22;4208;49.406;10.788;2022-09-30T12:29:50;14.60;99.90
8342;DHT22;4208;49.406;10.788;2022-09-30T12:33:03;14.70;99.90
8342;DHT22;4208;49.406;10.788;2022-09-30T12:42:09;14.70;99.90
8342;DHT22;4208;49.406;10.788;2022-09-30T12:47:54;15.10;97.60
8342;DHT22;4208;49.406;10.788;2022-09-30T12:50:27;15.30;96.60
8342;DHT22;4208;49.406;10.788;2022-09-30T12:52:57;15.30;96.90
8342;DHT22;4208;49.406;10.788;2022-09-30T12:55:31;15.40;97.20
8342;DHT22;4208;49.406;10.788;2022-09-30T12:58:12;15.50;97.20
8342;DHT22;4208;49.406;10.788;2022-09-30T13:00:58;15.70;96.60
8342;DHT22;4208;49.406;10.788;2022-09-30T13:03:43;15.60;97.00
8342;DHT22;4208;49.406;10.788;2022-09-30T13:06:14;15.60;95.90
8342;DHT22;4208;49.406;10.788;2022-09-30T13:09:06;15.70;96.00
8342;DHT22;4208;49.406;10.788;2022-09-30T13:11:41;15.70;95.80
8342;DHT22;4208;49.406;10.788;2022-09-30T13:14:16;15.60;96.10
8342;DHT22;4208;49.406;10.788;2022-09-30T13:17:26;15.50;95.30
8342;DHT22;4208;49.406;10.788;2022-09-30T13:19:55;15.40;96.60
8342;DHT22;4208;49.406;10.788;2022-09-30T13:23:01;15.40;96.20
8342;DHT22;4208;49.406;10.788;2022-09-30T13:25:52;15.60;96.10
8342;DHT22;4208;49.406;10.788;2022-09-30T13:28:29;15.70;95.70
8342;DHT22;4208;49.406;10.788;2022-09-30T13:31:12;15.70;96.90
8342;DHT22;4208;49.406;10.788;2022-09-30T13:33:44;15.90;94.30
8342;DHT22;4208;49.406;10.788;2022-09-30T13:36:25;15.80;96.40
8342;DHT22;4208;49.406;10.788;2022-09-30T13:39:17;16.00;94.20
8342;DHT22;4208;49.406;10.788;2022-09-30T13:41:55;16.10;94.50
8342;DHT22;4208;49.406;10.788;2022-09-30T13:44:33;16.20;93.90
8342;DHT22;4208;49.406;10.788;2022-09-30T13:47:12;16.30;92.80
8342;DHT22;4208;49.406;10.788;2022-09-30T13:49:48;16.40;93.40
8342;DHT22;4208;49.406;10.788;2022-09-30T13:52:20;16.40;92.50
8342;DHT22;4208;49.406;10.788;2022-09-30T13:54:51;16.30;93.40
8342;DHT22;4208;49.406;10.788;2022-09-30T13:57:26;16.30;92.30
8342;DHT22;4208;49.406;10.788;2022-09-30T14:00:04;16.40;91.80
8342;DHT22;4208;49.406;10.788;2022-09-30T14:03:05;16.40;92.10
8342;DHT22;4208;49.406;10.788;2022-09-30T14:05:54;16.40;91.90
8342;DHT22;4208;49.406;10.788;2022-09-30T14:08:49;16.30;92.70
8342;DHT22;4208;49.406;10.788;2022-09-30T14:11:42;16.20;92.80
8342;DHT22;4208;49.406;10.788;2022-09-30T14:14:40;16.10;93.20
8342;DHT22;4208;49.406;10.788;2022-09-30T14:17:31;16.10;94.00
8342;DHT22;4208;49.406;10.788;2022-09-30T14:20:21;16.00;93.70
8342;DHT22;4208;49.406;10.788;2022-09-30T14:22:53;16.20;92.00
8342;DHT22;4208;49.406;10.788;2022-09-30T14:25:23;16.40;92.50
8342;DHT22;4208;49.406;10.788;2022-09-30T14:27:59;16.60;90.70
8342;DHT22;4208;49.406;10.788;2022-09-30T14:30:33;16.40;91.20
8342;DHT22;4208;49.406;10.788;2022-09-30T14:33:13;16.40;91.30
8342;DHT22;4208;49.406;10.788;2022-09-30T14:35:46;16.40;91.40
8342;DHT22;4208;49.406;10.788;2022-09-30T14:38:19;16.30;92.40
8342;DHT22;4208;49.406;10.788;2022-09-30T14:40:50;16.30;91.00
8342;DHT22;4208;49.406;10.788;2022-09-30T14:43:22;16.20;91.20
8342;DHT22;4208;49.406;10.788;2022-09-30T14:45:53;16.20;91.20
8342;DHT22;4208;49.406;10.788;2022-09-30T14:48:26;16.10;91.50
8342;DHT22;4208;49.406;10.788;2022-09-30T14:50:59;16.20;91.00
8342;DHT22;4208;49.406;10.788;2022-09-30T14:53:31;16.20;91.30
8342;DHT22;4208;49.406;10.788;2022-09-30T14:56:01;16.20;90.80
8342;DHT22;4208;49.406;10.788;2022-09-30T14:58:38;16.20;89.10
8342;DHT22;4208;49.406;10.788;2022-09-30T15:01:11;16.30;90.40
8342;DHT22;4208;49.406;10.788;2022-09-30T15:03:47;16.30;90.70
8342;DHT22;4208;49.406;10.788;2022-09-30T15:06:19;16.20;90.90
8342;DHT22;4208;49.406;10.788;2022-09-30T15:08:50;16.10;91.60
8342;DHT22;4208;49.406;10.788;2022-09-30T15:11:22;16.20;90.80
8342;DHT22;4208;49.406;10.788;2022-09-30T15:13:57;16.10;90.60
8342;DHT22;4208;49.406;10.788;2022-09-30T15:16:28;16.10;91.30
8342;DHT22;4208;49.406;10.788;2022-09-30T15:18:59;16.20;90.70
8342;DHT22;4208;49.406;10.788;2022-09-30T15:21:30;16.20;90.50
8342;DHT22;4208;49.406;10.788;2022-09-30T15:24:00;16.20;90.20
8342;DHT22;4208;49.406;10.788;2022-09-30T15:26:30;16.00;91.00
8342;DHT22;4208;49.406;10.788;2022-09-30T15:29:02;16.00;90.90
8342;DHT22;4208;49.406;10.788;2022-09-30T15:31:32;15.90;90.80
8342;DHT22;4208;49.406;10.788;2022-09-30T15:34:13;16.00;90.40
8342;DHT22;4208;49.406;10.788;2022-09-30T15:36:56;16.00;90.70
8342;DHT22;4208;49.406;10.788;2022-09-30T15:39:28;15.70;91.50
8342;DHT22;4208;49.406;10.788;2022-09-30T15:42:28;15.60;91.60
8342;DHT22;4208;49.406;10.788;2022-09-30T15:44:58;15.50;92.80
8342;DHT22;4208;49.406;10.788;2022-09-30T15:47:27;15.50;91.90
8342;DHT22;4208;49.406;10.788;2022-09-30T15:49:57;15.70;91.00
8342;DHT22;4208;49.406;10.788;2022-09-30T15:52:29;15.70;90.90
8342;DHT22;4208;49.406;10.788;2022-09-30T15:55:35;15.60;91.00
8342;DHT22;4208;49.406;10.788;2022-09-30T15:58:33;15.50;90.90
8342;DHT22;4208;49.406;10.788;2022-09-30T16:01:18;15.30;92.30
8342;DHT22;4208;49.406;10.788;2022-09-30T16:03:52;15.30;91.60
8342;DHT22;4208;49.406;10.788;2022-09-30T16:06:25;15.20;92.50
8342;DHT22;4208;49.406;10.788;2022-09-30T16:09:01;15.10;92.10
8342;DHT22;4208;49.406;10.788;2022-09-30T16:11:32;15.10;91.50
8342;DHT22;4208;49.406;10.788;2022-09-30T16:14:06;15.00;91.80
8342;DHT22;4208;49.406;10.788;2022-09-30T16:16:37;15.00;92.00
8342;DHT22;4208;49.406;10.788;2022-09-30T16:19:15;14.90;92.10
8342;DHT22;4208;49.406;10.788;2022-09-30T16:21:47;14.90;92.70
8342;DHT22;4208;49.406;10.788;2022-09-30T16:24:43;14.80;93.60
8342;DHT22;4208;49.406;10.788;2022-09-30T16:27:29;14.80;94.50
8342;DHT22;4208;49.406;10.788;2022-09-30T16:30:01;14.70;94.70
8342;DHT22;4208;49.406;10.788;2022-09-30T16:32:32;14.50;95.40
8342;DHT22;4208;49.406;10.788;2022-09-30T16:35:04;14.40;95.60
8342;DHT22;4208;49.406;10.788;2022-09-30T16:37:34;14.30;96.10
8342;DHT22;4208;49.406;10.788;2022-09-30T16:40:14;14.20;96.60
8342;DHT22;4208;49.406;10.788;2022-09-30T16:42:43;14.10;97.00
8342;DHT22;4208;49.406;10.788;2022-09-30T16:45:14;14.00;97.50
8342;DHT22;4208;49.406;10.788;2022-09-30T16:47:43;13.90;97.90
8342;DHT22;4208;49.406;10.788;2022-09-30T16:50:23;13.70;98.40
8342;DHT22;4208;49.406;10.788;2022-09-30T16:52:53;13.60;98.70
8342;DHT22;4208;49.406;10.788;2022-09-30T16:55:23;13.50;98.90
8342;DHT22;4208;49.406;10.788;2022-09-30T16:57:54;13.40;99.20
8342;DHT22;4208;49.406;10.788;2022-09-30T17:00:25;13.30;99.30
8342;DHT22;4208;49.406;10.788;2022-09-30T17:02:55;13.10;99.40